createdAt,value
2018-12-19T00:00:05.278Z,1.40
2018-12-19T00:01:05.287Z,1.40
2018-12-19T00:02:05.455Z,1.40
2018-12-19T00:03:05.638Z,1.40
2018-12-19T00:04:04.877Z,1.30
2018-12-19T00:05:07.533Z,1.40
2018-12-19T00:06:08.144Z,1.30
2018-12-19T00:07:05.169Z,1.30
2018-12-19T00:08:05.225Z,1.30
2018-12-19T00:09:05.377Z,1.40
2018-12-19T00:10:05.417Z,1.40
2018-12-19T00:11:05.393Z,1.40
2018-12-19T00:12:05.432Z,1.30
2018-12-19T00:13:05.451Z,1.40
2018-12-19T00:14:05.528Z,1.30
2018-12-19T00:15:08.290Z,1.30
2018-12-19T00:16:05.238Z,1.30
2018-12-19T00:17:05.329Z,1.30
2018-12-19T00:18:08.127Z,1.20
2018-12-19T00:19:05.250Z,1.20
2018-12-19T00:20:07.845Z,1.20
2018-12-19T00:21:04.879Z,1.20
2018-12-19T00:22:05.069Z,1.20
2018-12-19T00:23:05.151Z,1.20
2018-12-19T00:24:05.212Z,1.10
2018-12-19T00:25:12.922Z,1.10
2018-12-19T00:26:04.995Z,1.10
2018-12-19T00:27:05.133Z,1.10
2018-12-19T00:28:10.758Z,1.10
2018-12-19T00:29:04.743Z,1.10
2018-12-19T00:30:07.326Z,1.00
2018-12-19T00:31:05.202Z,1.10
2018-12-19T00:32:07.928Z,1.00
2018-12-19T00:33:07.492Z,1.10
2018-12-19T00:34:08.079Z,1.00
2018-12-19T00:35:07.658Z,1.00
2018-12-19T00:36:04.898Z,1.00
2018-12-19T00:37:05.047Z,1.00
2018-12-19T00:38:05.119Z,1.00
2018-12-19T00:39:09.479Z,1.00
2018-12-19T00:40:07.464Z,1.00
2018-12-19T00:41:05.415Z,1.00
2018-12-19T00:42:10.582Z,1.00
2018-12-19T00:43:05.577Z,1.00
2018-12-19T00:44:05.659Z,1.00
2018-12-19T00:45:04.785Z,0.90
2018-12-19T00:46:04.883Z,0.90
2018-12-19T00:47:05.357Z,0.90
2018-12-19T00:48:05.421Z,1.00
2018-12-19T00:49:05.437Z,1.00
2018-12-19T00:50:08.002Z,1.00
2018-12-19T00:51:04.936Z,1.00
2018-12-19T00:52:05.015Z,1.00
2018-12-19T00:53:10.350Z,0.90
2018-12-19T00:54:07.911Z,0.90
2018-12-19T00:55:04.866Z,0.90
2018-12-19T00:56:04.924Z,0.90
2018-12-19T00:57:05.029Z,0.90
2018-12-19T00:58:05.226Z,0.90
2018-12-19T00:59:07.975Z,0.90
2018-12-19T01:00:10.229Z,0.90
2018-12-19T01:01:05.229Z,0.90
2018-12-19T01:02:07.962Z,1.00
2018-12-19T01:03:04.965Z,1.00
2018-12-19T01:04:05.049Z,1.00
2018-12-19T01:05:07.667Z,1.00
2018-12-19T01:06:04.800Z,1.00
2018-12-19T01:07:04.826Z,1.10
2018-12-19T01:08:04.900Z,1.10
2018-12-19T01:09:07.451Z,1.10
2018-12-19T01:10:05.470Z,1.00
2018-12-19T01:11:08.124Z,1.10
2018-12-19T01:12:05.055Z,1.10
2018-12-19T01:13:05.069Z,1.10
2018-12-19T01:14:07.912Z,1.10
2018-12-19T01:15:04.913Z,1.10
2018-12-19T01:16:04.980Z,1.10
2018-12-19T01:17:05.041Z,1.20
2018-12-19T01:18:05.125Z,1.10
2018-12-19T01:19:05.102Z,1.20
2018-12-19T01:20:07.673Z,1.20
2018-12-19T01:21:09.854Z,1.20
2018-12-19T01:22:05.265Z,1.20
2018-12-19T01:23:05.361Z,1.20
2018-12-19T01:24:08.244Z,1.20
2018-12-19T01:25:07.813Z,1.20
2018-12-19T01:26:07.235Z,1.10
2018-12-19T01:27:05.082Z,1.20
2018-12-19T01:28:07.726Z,1.10
2018-12-19T01:29:09.844Z,1.10
2018-12-19T01:30:04.810Z,1.10
2018-12-19T01:31:07.359Z,1.10
2018-12-19T01:32:07.796Z,1.00
2018-12-19T01:33:04.859Z,1.10
2018-12-19T01:34:04.961Z,1.10
2018-12-19T01:35:07.535Z,1.00
2018-12-19T01:36:07.944Z,1.00
2018-12-19T01:37:04.801Z,1.00
2018-12-19T01:38:04.881Z,1.00
2018-12-19T01:39:04.891Z,1.00
2018-12-19T01:40:07.456Z,0.90
2018-12-19T01:41:05.429Z,0.90
2018-12-19T01:42:05.527Z,0.90
2018-12-19T01:43:08.088Z,0.90
2018-12-19T01:44:05.074Z,0.90
2018-12-19T01:45:07.721Z,0.80
2018-12-19T01:46:07.297Z,0.80
2018-12-19T01:47:10.392Z,0.80
2018-12-19T01:48:07.976Z,0.70
2018-12-19T01:49:04.891Z,0.70
2018-12-19T01:50:04.947Z,0.70
2018-12-19T01:51:04.925Z,0.70
2018-12-19T01:52:05.010Z,0.70
2018-12-19T01:53:05.022Z,0.60
2018-12-19T01:54:05.100Z,0.60
2018-12-19T01:55:05.147Z,0.60
2018-12-19T01:56:05.367Z,0.60
2018-12-19T01:57:05.587Z,0.60
2018-12-19T01:58:08.127Z,0.60
2018-12-19T01:59:05.096Z,0.60
2018-12-19T02:00:07.642Z,0.70
2018-12-19T02:01:05.626Z,0.70
2018-12-19T02:02:07.383Z,0.70
2018-12-19T02:03:05.287Z,0.60
2018-12-19T02:04:05.364Z,0.60
2018-12-19T02:05:05.386Z,0.70
2018-12-19T02:06:05.410Z,0.70
2018-12-19T02:07:10.594Z,0.70
2018-12-19T02:08:05.496Z,0.70
2018-12-19T02:09:04.839Z,0.70
2018-12-19T02:10:04.898Z,0.80
2018-12-19T02:11:04.938Z,0.80
2018-12-19T02:12:10.024Z,0.80
2018-12-19T02:13:04.897Z,0.80
2018-12-19T02:14:07.459Z,0.80
2018-12-19T02:15:05.324Z,0.80
2018-12-19T02:16:07.959Z,0.80
2018-12-19T02:17:04.943Z,0.80
2018-12-19T02:18:07.783Z,0.80
2018-12-19T02:19:04.687Z,0.80
2018-12-19T02:20:05.158Z,0.80
2018-12-19T02:21:07.744Z,0.80
2018-12-19T02:22:08.159Z,0.70
2018-12-19T02:23:07.605Z,0.70
2018-12-19T02:24:08.051Z,0.70
2018-12-19T02:25:05.111Z,0.70
2018-12-19T02:26:12.856Z,0.60
2018-12-19T02:27:04.816Z,0.70
2018-12-19T02:28:04.907Z,0.70
2018-12-19T02:29:07.620Z,0.60
2018-12-19T02:30:08.017Z,0.60
2018-12-19T02:31:04.934Z,0.60
2018-12-19T02:32:05.184Z,0.60
2018-12-19T02:33:05.338Z,0.60
2018-12-19T02:34:05.565Z,0.50
2018-12-19T02:35:07.244Z,0.60
2018-12-19T02:36:05.149Z,0.50
2018-12-19T02:37:05.221Z,0.50
2018-12-19T02:38:05.421Z,0.50
2018-12-19T02:39:05.371Z,0.50
2018-12-19T02:40:07.891Z,0.50
2018-12-19T02:41:04.799Z,0.50
2018-12-19T02:42:04.845Z,0.50
2018-12-19T02:43:04.994Z,0.50
2018-12-19T02:44:05.130Z,0.50
2018-12-19T02:45:05.164Z,0.50
2018-12-19T02:46:07.950Z,0.50
2018-12-19T02:47:04.912Z,0.50
2018-12-19T02:48:07.606Z,0.50
2018-12-19T02:49:05.589Z,0.40
2018-12-19T02:50:08.170Z,0.50
2018-12-19T02:51:05.128Z,0.40
2018-12-19T02:52:05.239Z,0.50
2018-12-19T02:53:05.254Z,0.40
2018-12-19T02:54:05.377Z,0.40
2018-12-19T02:55:08.064Z,0.50
2018-12-19T02:56:05.035Z,0.40
2018-12-19T02:57:07.714Z,0.50
2018-12-19T02:58:04.719Z,0.40
2018-12-19T02:59:07.276Z,0.50
2018-12-19T03:00:05.164Z,0.50
2018-12-19T03:01:05.540Z,0.50
2018-12-19T03:02:05.797Z,0.60
2018-12-19T03:03:04.945Z,0.60
2018-12-19T03:04:05.126Z,0.60
2018-12-19T03:05:05.239Z,0.60
2018-12-19T03:06:07.890Z,0.70
2018-12-19T03:07:04.799Z,0.70
2018-12-19T03:08:05.046Z,0.80
2018-12-19T03:09:05.073Z,0.80
2018-12-19T03:10:07.874Z,0.90
2018-12-19T03:11:04.860Z,0.90
2018-12-19T03:12:04.951Z,0.90
2018-12-19T03:13:04.970Z,1.00
2018-12-19T03:14:05.159Z,1.00
2018-12-19T03:15:07.820Z,1.10
2018-12-19T03:16:07.376Z,1.10
2018-12-19T03:17:08.039Z,1.10
2018-12-19T03:18:04.971Z,1.10
2018-12-19T03:19:04.952Z,1.10
2018-12-19T03:20:05.005Z,1.10
2018-12-19T03:21:07.753Z,1.10
2018-12-19T03:22:04.787Z,1.10
2018-12-19T03:23:04.966Z,1.10
2018-12-19T03:24:05.202Z,1.10
2018-12-19T03:25:05.457Z,1.20
2018-12-19T03:26:05.549Z,1.20
2018-12-19T03:27:05.721Z,1.20
2018-12-19T03:28:07.385Z,1.10
2018-12-19T03:29:05.345Z,1.10
2018-12-19T03:30:07.987Z,1.10
2018-12-19T03:31:07.447Z,1.10
2018-12-19T03:32:07.835Z,1.10
2018-12-19T03:33:12.389Z,1.10
2018-12-19T03:34:07.938Z,1.10
2018-12-19T03:35:07.408Z,1.10
2018-12-19T03:36:07.938Z,1.10
2018-12-19T03:37:04.884Z,1.10
2018-12-19T03:38:05.392Z,1.10
2018-12-19T03:39:05.485Z,1.00
2018-12-19T03:40:05.536Z,1.00
2018-12-19T03:41:05.547Z,1.00
2018-12-19T03:42:05.616Z,1.00
2018-12-19T03:43:04.667Z,1.00
2018-12-19T03:44:04.685Z,1.00
2018-12-19T03:45:04.810Z,1.00
2018-12-19T03:46:07.413Z,1.00
2018-12-19T03:47:05.376Z,1.00
2018-12-19T03:48:10.620Z,1.00
2018-12-19T03:49:08.200Z,1.00
2018-12-19T03:50:05.088Z,1.00
2018-12-19T03:51:05.164Z,1.00
2018-12-19T03:52:05.225Z,1.00
2018-12-19T03:53:05.437Z,1.00
2018-12-19T03:54:05.563Z,1.00
2018-12-19T03:55:05.577Z,1.10
2018-12-19T03:56:04.686Z,1.10
2018-12-19T03:57:04.683Z,1.10
2018-12-19T03:58:07.241Z,1.20
2018-12-19T03:59:05.234Z,1.20
2018-12-19T04:00:05.305Z,1.20
2018-12-19T04:01:05.470Z,1.20
2018-12-19T04:02:05.680Z,1.20
2018-12-19T04:03:04.770Z,1.20
2018-12-19T04:04:04.784Z,1.20
2018-12-19T04:05:04.846Z,1.20
2018-12-19T04:06:07.561Z,1.20
2018-12-19T04:07:08.220Z,1.20
2018-12-19T04:08:07.657Z,1.20
2018-12-19T04:09:05.553Z,1.20
2018-12-19T04:10:05.580Z,1.20
2018-12-19T04:11:05.704Z,1.20
2018-12-19T04:12:04.843Z,1.20
2018-12-19T04:13:04.919Z,1.20
2018-12-19T04:14:04.992Z,1.20
2018-12-19T04:15:10.121Z,1.20
2018-12-19T04:16:05.098Z,1.20
2018-12-19T04:17:07.958Z,1.20
2018-12-19T04:18:12.512Z,1.20
2018-12-19T04:19:05.528Z,1.20
2018-12-19T04:20:05.582Z,1.20
2018-12-19T04:21:05.657Z,1.20
2018-12-19T04:22:04.754Z,1.20
2018-12-19T04:23:04.921Z,1.20
2018-12-19T04:24:04.856Z,1.10
2018-12-19T04:25:07.480Z,1.10
2018-12-19T04:26:07.926Z,1.10
2018-12-19T04:27:07.394Z,1.10
2018-12-19T04:28:05.246Z,1.10
2018-12-19T04:29:07.813Z,1.10
2018-12-19T04:30:04.785Z,1.20
2018-12-19T04:31:04.922Z,1.20
2018-12-19T04:32:04.965Z,1.20
2018-12-19T04:33:04.990Z,1.20
2018-12-19T04:34:05.054Z,1.20
2018-12-19T04:35:10.158Z,1.20
2018-12-19T04:36:07.712Z,1.10
2018-12-19T04:37:04.668Z,1.10
2018-12-19T04:38:04.703Z,1.10
2018-12-19T04:39:04.775Z,1.10
2018-12-19T04:40:05.554Z,1.10
2018-12-19T04:41:05.084Z,1.10
2018-12-19T04:42:05.211Z,1.10
2018-12-19T04:43:05.302Z,1.10
2018-12-19T04:44:08.020Z,1.10
2018-12-19T04:45:04.975Z,1.10
2018-12-19T04:46:05.512Z,1.10
2018-12-19T04:47:05.523Z,1.10
2018-12-19T04:48:05.665Z,1.10
2018-12-19T04:49:04.721Z,1.10
2018-12-19T04:50:07.345Z,1.10
2018-12-19T04:51:05.320Z,1.10
2018-12-19T04:52:07.927Z,1.10
2018-12-19T04:53:04.893Z,1.00
2018-12-19T04:54:05.059Z,1.10
2018-12-19T04:55:05.165Z,1.10
2018-12-19T04:56:10.449Z,1.10
2018-12-19T04:57:05.332Z,1.10
2018-12-19T04:58:05.525Z,1.10
2018-12-19T04:59:04.661Z,1.10
2018-12-19T05:00:04.721Z,1.20
2018-12-19T05:01:04.759Z,1.20
2018-12-19T05:02:04.878Z,1.10
2018-12-19T05:03:07.471Z,1.20
2018-12-19T05:04:05.379Z,1.20
2018-12-19T05:05:05.502Z,1.20
2018-12-19T05:06:08.104Z,1.30
2018-12-19T05:07:05.021Z,1.30
2018-12-19T05:08:10.285Z,1.30
2018-12-19T05:09:07.799Z,1.30
2018-12-19T05:10:12.220Z,1.30
2018-12-19T05:11:08.181Z,1.30
2018-12-19T05:12:05.174Z,1.30
2018-12-19T05:13:05.212Z,1.30
2018-12-19T05:14:05.309Z,1.30
2018-12-19T05:15:05.325Z,1.30
2018-12-19T05:16:05.358Z,1.30
2018-12-19T05:17:05.442Z,1.20
2018-12-19T05:18:08.155Z,1.20
2018-12-19T05:19:05.218Z,1.20
2018-12-19T05:20:05.258Z,1.20
2018-12-19T05:21:04.753Z,1.20
2018-12-19T05:22:05.010Z,1.20
2018-12-19T05:23:05.099Z,1.20
2018-12-19T05:24:07.945Z,1.10
2018-12-19T05:25:07.813Z,1.20
2018-12-19T05:26:08.185Z,1.10
2018-12-19T05:27:05.229Z,1.20
2018-12-19T05:28:05.290Z,1.10
2018-12-19T05:29:05.318Z,1.10
2018-12-19T05:30:10.550Z,1.10
2018-12-19T05:31:05.485Z,1.10
2018-12-19T05:32:08.075Z,1.10
2018-12-19T05:33:04.996Z,1.10
2018-12-19T05:34:12.634Z,1.10
2018-12-19T05:35:10.606Z,1.10
2018-12-19T05:36:05.496Z,1.10
2018-12-19T05:37:05.646Z,1.10
2018-12-19T05:38:07.209Z,1.10
2018-12-19T05:39:05.235Z,1.10
2018-12-19T05:40:05.397Z,1.10
2018-12-19T05:41:05.520Z,1.10
2018-12-19T05:42:05.022Z,1.10
2018-12-19T05:43:05.134Z,1.10
2018-12-19T05:44:05.231Z,1.10
2018-12-19T05:45:05.237Z,1.10
2018-12-19T05:46:07.871Z,1.10
2018-12-19T05:47:04.822Z,1.10
2018-12-19T05:48:04.987Z,1.10
2018-12-19T05:49:08.189Z,1.10
2018-12-19T05:50:05.089Z,1.10
2018-12-19T05:51:05.176Z,1.10
2018-12-19T05:52:08.083Z,1.10
2018-12-19T05:53:04.977Z,1.10
2018-12-19T05:54:07.798Z,1.10
2018-12-19T05:55:04.797Z,1.10
2018-12-19T05:56:05.034Z,1.10
2018-12-19T05:57:10.287Z,1.20
2018-12-19T05:58:05.313Z,1.10
2018-12-19T05:59:05.434Z,1.20
2018-12-19T06:00:10.789Z,1.10
2018-12-19T06:01:04.815Z,1.10
2018-12-19T06:02:04.975Z,1.20
2018-12-19T06:03:07.678Z,1.20
2018-12-19T06:04:10.655Z,1.20
2018-12-19T06:05:05.596Z,1.20
2018-12-19T06:06:04.822Z,1.20
2018-12-19T06:07:04.860Z,1.20
2018-12-19T06:08:07.454Z,1.20
2018-12-19T06:09:07.987Z,1.20
2018-12-19T06:10:04.922Z,1.20
2018-12-19T06:11:05.108Z,1.20
2018-12-19T06:12:07.687Z,1.20
2018-12-19T06:13:05.556Z,1.20
2018-12-19T06:14:05.626Z,1.20
2018-12-19T06:15:04.688Z,1.20
2018-12-19T06:16:04.727Z,1.20
2018-12-19T06:17:04.941Z,1.20
2018-12-19T06:18:05.003Z,1.20
2018-12-19T06:19:07.613Z,1.20
2018-12-19T06:20:05.597Z,1.20
2018-12-19T06:21:04.777Z,1.30
2018-12-19T06:22:04.913Z,1.20
2018-12-19T06:23:07.550Z,1.30
2018-12-19T06:24:07.964Z,1.20
2018-12-19T06:25:04.966Z,1.20
2018-12-19T06:26:05.032Z,1.20
2018-12-19T06:27:05.014Z,1.20
2018-12-19T06:28:05.231Z,1.20
2018-12-19T06:29:07.976Z,1.20
2018-12-19T06:30:07.504Z,1.30
2018-12-19T06:31:05.572Z,1.30
2018-12-19T06:32:04.777Z,1.30
2018-12-19T06:33:04.873Z,1.20
2018-12-19T06:34:07.461Z,1.30
2018-12-19T06:35:05.502Z,1.20
2018-12-19T06:36:08.109Z,1.20
2018-12-19T06:37:04.981Z,1.20
2018-12-19T06:38:05.094Z,1.20
2018-12-19T06:39:07.696Z,1.20
2018-12-19T06:40:05.657Z,1.20
2018-12-19T06:41:04.702Z,1.20
2018-12-19T06:42:04.944Z,1.20
2018-12-19T06:43:05.012Z,1.20
2018-12-19T06:44:05.238Z,1.30
2018-12-19T06:45:05.340Z,1.30
2018-12-19T06:46:05.442Z,1.30
2018-12-19T06:47:05.434Z,1.30
2018-12-19T06:48:05.566Z,1.30
2018-12-19T06:49:05.761Z,1.30
2018-12-19T06:50:04.956Z,1.40
2018-12-19T06:51:10.047Z,1.40
2018-12-19T06:52:05.045Z,1.40
2018-12-19T06:53:05.233Z,1.50
2018-12-19T06:54:05.363Z,1.50
2018-12-19T06:55:05.475Z,1.60
2018-12-19T06:56:05.379Z,1.60
2018-12-19T06:57:15.714Z,1.60
2018-12-19T06:58:04.703Z,1.60
2018-12-19T06:59:07.742Z,1.60
2018-12-19T07:00:04.832Z,1.60
2018-12-19T07:01:07.625Z,1.60
2018-12-19T07:02:10.756Z,1.60
2018-12-19T07:03:04.724Z,1.60
2018-12-19T07:04:07.327Z,1.60
2018-12-19T07:05:07.771Z,1.60
2018-12-19T07:06:04.695Z,1.60
2018-12-19T07:07:07.299Z,1.60
2018-12-19T07:08:05.139Z,1.70
2018-12-19T07:09:05.205Z,1.70
2018-12-19T07:10:05.354Z,1.70
2018-12-19T07:11:05.377Z,1.70
2018-12-19T07:12:05.441Z,1.70
2018-12-19T07:13:05.619Z,1.70
2018-12-19T07:14:04.815Z,1.70
2018-12-19T07:15:05.002Z,1.70
2018-12-19T07:16:05.072Z,1.70
2018-12-19T07:17:05.198Z,1.70
2018-12-19T07:18:07.930Z,1.70
2018-12-19T07:19:04.858Z,1.70
2018-12-19T07:20:04.980Z,1.70
2018-12-19T07:21:05.071Z,1.70
2018-12-19T07:22:05.152Z,1.70
2018-12-19T07:23:05.244Z,1.70
2018-12-19T07:24:05.387Z,1.80
2018-12-19T07:25:05.543Z,1.80
2018-12-19T07:26:05.658Z,1.80
2018-12-19T07:27:04.677Z,1.80
2018-12-19T07:28:04.743Z,1.80
2018-12-19T07:29:07.359Z,1.80
2018-12-19T07:30:05.323Z,1.80
2018-12-19T07:31:05.389Z,1.70
2018-12-19T07:32:05.584Z,1.70
2018-12-19T07:33:05.636Z,1.80
2018-12-19T07:34:04.882Z,1.80
2018-12-19T07:35:07.557Z,1.70
2018-12-19T07:36:05.621Z,1.80
2018-12-19T07:37:04.809Z,1.80
2018-12-19T07:38:05.070Z,1.80
2018-12-19T07:39:05.117Z,1.80
2018-12-19T07:40:08.090Z,1.70
2018-12-19T07:41:05.060Z,1.80
2018-12-19T07:42:05.172Z,1.80
2018-12-19T07:43:07.954Z,1.80
2018-12-19T07:44:05.035Z,1.80
2018-12-19T07:45:05.216Z,1.70
2018-12-19T07:46:05.393Z,1.80
2018-12-19T07:47:05.466Z,1.80
2018-12-19T07:48:05.612Z,1.80
2018-12-19T07:49:07.398Z,1.80
2018-12-19T07:50:05.327Z,1.80
2018-12-19T07:51:05.407Z,1.80
2018-12-19T07:52:05.460Z,1.80
2018-12-19T07:53:10.550Z,1.80
2018-12-19T07:54:05.479Z,1.80
2018-12-19T07:55:05.566Z,1.80
2018-12-19T07:56:05.878Z,1.80
2018-12-19T07:57:07.512Z,1.80
2018-12-19T07:58:05.453Z,1.80
2018-12-19T07:59:05.487Z,1.80
2018-12-19T08:00:05.696Z,1.80
2018-12-19T08:01:04.841Z,1.80
2018-12-19T08:02:04.969Z,1.90
2018-12-19T08:03:05.455Z,1.80
2018-12-19T08:04:05.624Z,1.80
2018-12-19T08:05:07.252Z,1.90
2018-12-19T08:06:05.283Z,1.90
2018-12-19T08:07:07.252Z,1.90
2018-12-19T08:08:07.662Z,1.90
2018-12-19T08:09:05.633Z,1.90
2018-12-19T08:10:07.255Z,1.90
2018-12-19T08:11:05.102Z,1.90
2018-12-19T08:12:05.240Z,2.00
2018-12-19T08:13:05.278Z,2.00
2018-12-19T08:14:07.961Z,2.00
2018-12-19T08:15:04.948Z,2.00
2018-12-19T08:16:05.129Z,2.00
2018-12-19T08:17:05.306Z,2.00
2018-12-19T08:18:05.706Z,2.00
2018-12-19T08:19:07.396Z,2.00
2018-12-19T08:20:15.364Z,2.00
2018-12-19T08:21:05.279Z,2.00
2018-12-19T08:22:08.092Z,2.10
2018-12-19T08:23:05.093Z,2.00
2018-12-19T08:24:05.236Z,2.10
2018-12-19T08:25:05.495Z,2.00
2018-12-19T08:26:08.484Z,2.10
2018-12-19T08:27:05.519Z,2.10
2018-12-19T08:28:04.653Z,2.10
2018-12-19T08:29:04.806Z,2.10
2018-12-19T08:30:05.232Z,2.10
2018-12-19T08:31:05.460Z,2.20
2018-12-19T08:32:08.307Z,2.20
2018-12-19T08:33:05.570Z,2.20
2018-12-19T08:34:05.651Z,2.20
2018-12-19T08:35:07.295Z,2.30
2018-12-19T08:36:10.328Z,2.20
2018-12-19T08:37:12.854Z,2.30
2018-12-19T08:38:07.449Z,2.30
2018-12-19T08:39:05.462Z,2.20
2018-12-19T08:40:08.034Z,2.30
2018-12-19T08:41:07.480Z,2.30
2018-12-19T08:42:05.542Z,2.30
2018-12-19T08:43:05.703Z,2.30
2018-12-19T08:44:04.902Z,2.30
2018-12-19T08:45:05.090Z,2.30
2018-12-19T08:46:05.234Z,2.30
2018-12-19T08:47:05.314Z,2.40
2018-12-19T08:48:08.160Z,2.30
2018-12-19T08:49:05.203Z,2.30
2018-12-19T08:50:05.276Z,2.40
2018-12-19T08:51:05.476Z,2.40
2018-12-19T08:52:06.296Z,2.40
2018-12-19T08:53:04.856Z,2.40
2018-12-19T08:54:07.576Z,2.50
2018-12-19T08:55:08.129Z,2.50
2018-12-19T08:56:05.091Z,2.50
2018-12-19T08:57:07.791Z,2.50
2018-12-19T08:58:07.377Z,2.50
2018-12-19T08:59:05.283Z,2.50
2018-12-19T09:00:07.863Z,2.60
2018-12-19T09:01:04.831Z,2.50
2018-12-19T09:02:05.217Z,2.60
2018-12-19T09:03:05.329Z,2.60
2018-12-19T09:04:05.379Z,2.60
2018-12-19T09:05:05.734Z,2.60
2018-12-19T09:06:07.859Z,2.60
2018-12-19T09:07:04.802Z,2.60
2018-12-19T09:08:07.414Z,2.60
2018-12-19T09:09:05.334Z,2.60
2018-12-19T09:10:08.067Z,2.60
2018-12-19T09:11:10.123Z,2.70
2018-12-19T09:12:04.979Z,2.60
2018-12-19T09:13:05.050Z,2.70
2018-12-19T09:14:05.222Z,2.60
2018-12-19T09:15:07.875Z,2.60
2018-12-19T09:16:07.374Z,2.70
2018-12-19T09:17:07.926Z,2.70
2018-12-19T09:18:07.447Z,2.70
2018-12-19T09:19:05.380Z,2.70
2018-12-19T09:20:05.450Z,2.70
2018-12-19T09:21:08.174Z,2.70
2018-12-19T09:22:05.118Z,2.70
2018-12-19T09:23:05.309Z,2.70
2018-12-19T09:24:05.419Z,2.70
2018-12-19T09:25:05.596Z,2.70
2018-12-19T09:26:09.847Z,2.70
2018-12-19T09:27:04.850Z,2.70
2018-12-19T09:28:07.727Z,2.70
2018-12-19T09:29:04.800Z,2.70
2018-12-19T09:30:04.986Z,2.70
2018-12-19T09:31:05.186Z,2.70
2018-12-19T09:32:04.800Z,2.70
2018-12-19T09:33:04.771Z,2.70
2018-12-19T09:34:07.491Z,2.70
2018-12-19T09:35:05.609Z,2.70
2018-12-19T09:36:05.039Z,2.70
2018-12-19T09:37:07.780Z,2.70
2018-12-19T09:38:07.173Z,2.70
2018-12-19T09:39:07.636Z,2.70
2018-12-19T09:40:05.505Z,2.70
2018-12-19T09:41:12.063Z,2.70
2018-12-19T09:42:08.039Z,2.70
2018-12-19T09:43:07.698Z,2.70
2018-12-19T09:44:05.740Z,2.70
2018-12-19T09:45:07.414Z,2.70
2018-12-19T09:46:05.280Z,2.70
2018-12-19T09:47:05.342Z,2.70
2018-12-19T09:48:05.408Z,2.70
2018-12-19T09:49:12.115Z,2.70
2018-12-19T09:50:07.285Z,2.70
2018-12-19T09:51:05.293Z,2.70
2018-12-19T09:52:05.496Z,2.70
2018-12-19T09:53:05.502Z,2.80
2018-12-19T09:54:05.740Z,2.80
2018-12-19T09:55:04.973Z,2.70
2018-12-19T09:56:07.655Z,2.70
2018-12-19T09:57:10.743Z,2.70
2018-12-19T09:58:05.696Z,2.70
2018-12-19T09:59:04.728Z,2.70
2018-12-19T10:00:09.964Z,2.70
2018-12-19T10:01:05.405Z,2.70
2018-12-19T10:02:04.921Z,2.70
2018-12-19T10:03:04.919Z,2.70
2018-12-19T10:04:07.510Z,2.70
2018-12-19T10:05:05.447Z,2.70
2018-12-19T10:06:05.634Z,2.70
2018-12-19T10:07:04.777Z,2.70
2018-12-19T10:08:04.885Z,2.70
2018-12-19T10:09:04.899Z,2.70
2018-12-19T10:10:07.465Z,2.70
2018-12-19T10:11:05.387Z,2.70
2018-12-19T10:12:13.043Z,2.70
2018-12-19T10:13:04.932Z,2.70
2018-12-19T10:14:05.109Z,2.70
2018-12-19T10:15:10.468Z,2.70
2018-12-19T10:16:05.513Z,2.70
2018-12-19T10:17:05.650Z,2.70
2018-12-19T10:18:04.828Z,2.70
2018-12-19T10:19:04.892Z,2.70
2018-12-19T10:20:05.042Z,2.70
2018-12-19T10:21:05.161Z,2.70
2018-12-19T10:22:05.335Z,2.70
2018-12-19T10:23:05.478Z,2.70
2018-12-19T10:24:08.157Z,2.70
2018-12-19T10:25:05.083Z,2.70
2018-12-19T10:26:07.605Z,2.80
2018-12-19T10:27:08.207Z,2.80
2018-12-19T10:28:05.144Z,2.80
2018-12-19T10:29:05.150Z,2.80
2018-12-19T10:30:05.490Z,2.80
2018-12-19T10:31:05.518Z,2.80
2018-12-19T10:32:08.133Z,2.80
2018-12-19T10:33:05.073Z,2.80
2018-12-19T10:34:05.224Z,2.80
2018-12-19T10:35:05.298Z,2.80
2018-12-19T10:36:07.896Z,2.80
2018-12-19T10:37:04.786Z,2.80
2018-12-19T10:38:05.060Z,2.80
2018-12-19T10:39:07.778Z,2.90
2018-12-19T10:40:07.251Z,2.90
2018-12-19T10:41:05.179Z,2.90
2018-12-19T10:42:05.422Z,2.90
2018-12-19T10:43:10.659Z,2.90
2018-12-19T10:44:05.707Z,2.90
2018-12-19T10:45:04.962Z,2.90
2018-12-19T10:46:10.286Z,2.90
2018-12-19T10:47:07.768Z,2.90
2018-12-19T10:48:07.330Z,2.90
2018-12-19T10:49:05.280Z,2.90
2018-12-19T10:50:08.004Z,2.90
2018-12-19T10:51:05.127Z,2.90
2018-12-19T10:52:05.239Z,2.90
2018-12-19T10:53:05.329Z,2.90
2018-12-19T10:54:05.450Z,2.90
2018-12-19T10:55:05.912Z,2.90
2018-12-19T10:56:07.640Z,3.00
2018-12-19T10:57:13.403Z,3.00
2018-12-19T10:58:08.100Z,3.00
2018-12-19T10:59:05.118Z,3.00
2018-12-19T11:00:05.371Z,3.00
2018-12-19T11:01:05.599Z,3.00
2018-12-19T11:02:07.225Z,3.00
2018-12-19T11:03:10.408Z,3.00
2018-12-19T11:04:10.683Z,3.00
2018-12-19T11:05:05.681Z,3.10
2018-12-19T11:06:04.837Z,3.10
2018-12-19T11:07:04.924Z,3.00
2018-12-19T11:08:04.996Z,3.10
2018-12-19T11:09:05.319Z,3.10
2018-12-19T11:10:05.562Z,3.10
2018-12-19T11:11:04.814Z,3.10
2018-12-19T11:12:04.897Z,3.10
2018-12-19T11:13:05.074Z,3.10
2018-12-19T11:14:05.229Z,3.10
2018-12-19T11:15:05.368Z,3.10
2018-12-19T11:16:05.427Z,3.10
2018-12-19T11:17:08.076Z,3.10
2018-12-19T11:18:05.006Z,3.10
2018-12-19T11:19:05.031Z,3.10
2018-12-19T11:20:07.735Z,3.10
2018-12-19T11:21:04.670Z,3.20
2018-12-19T11:22:07.327Z,3.10
2018-12-19T11:23:05.429Z,3.10
2018-12-19T11:24:08.033Z,3.10
2018-12-19T11:25:05.059Z,3.10
2018-12-19T11:26:05.301Z,3.10
2018-12-19T11:27:05.514Z,3.20
2018-12-19T11:28:05.609Z,3.10
2018-12-19T11:29:04.657Z,3.10
2018-12-19T11:30:04.744Z,3.10
2018-12-19T11:31:07.403Z,3.10
2018-12-19T11:32:05.380Z,3.10
2018-12-19T11:33:08.099Z,3.10
2018-12-19T11:34:05.121Z,3.10
2018-12-19T11:35:05.311Z,3.10
2018-12-19T11:36:15.622Z,3.10
2018-12-19T11:37:08.261Z,3.10
2018-12-19T11:38:10.205Z,3.10
2018-12-19T11:39:07.677Z,3.10
2018-12-19T11:40:08.109Z,3.10
2018-12-19T11:41:04.995Z,3.10
2018-12-19T11:42:07.584Z,3.10
2018-12-19T11:43:05.512Z,3.10
2018-12-19T11:44:05.617Z,3.10
2018-12-19T11:45:05.639Z,3.10
2018-12-19T11:46:07.288Z,3.10
2018-12-19T11:47:05.308Z,3.00
2018-12-19T11:48:05.441Z,3.00
2018-12-19T11:49:10.717Z,3.10
2018-12-19T11:50:04.812Z,3.10
2018-12-19T11:51:05.143Z,3.00
2018-12-19T11:52:05.362Z,3.00
2018-12-19T11:53:04.841Z,3.00
2018-12-19T11:54:04.902Z,3.00
2018-12-19T11:55:05.090Z,3.00
2018-12-19T11:56:05.218Z,3.00
2018-12-19T11:57:07.786Z,3.00
2018-12-19T11:58:07.238Z,3.00
2018-12-19T11:59:07.821Z,3.00
2018-12-19T12:00:04.832Z,3.00
2018-12-19T12:01:05.070Z,3.00
2018-12-19T12:02:05.412Z,3.00
2018-12-19T12:03:08.039Z,3.00
2018-12-19T12:04:04.874Z,3.00
2018-12-19T12:05:07.614Z,3.00
2018-12-19T12:06:08.078Z,3.00
2018-12-19T12:07:07.659Z,3.00
2018-12-19T12:08:05.786Z,3.00
2018-12-19T12:09:07.574Z,3.00
2018-12-19T12:10:05.684Z,3.00
2018-12-19T12:11:04.893Z,3.00
2018-12-19T12:12:07.593Z,3.00
2018-12-19T12:13:05.465Z,3.00
2018-12-19T12:14:05.642Z,3.00
2018-12-19T12:15:04.849Z,3.00
2018-12-19T12:16:04.979Z,3.00
2018-12-19T12:17:05.228Z,3.00
2018-12-19T12:18:07.994Z,3.00
2018-12-19T12:19:08.066Z,3.00
2018-12-19T12:20:04.952Z,3.00
2018-12-19T12:21:05.370Z,3.00
2018-12-19T12:22:05.684Z,3.00
2018-12-19T12:23:07.361Z,3.00
2018-12-19T12:24:05.306Z,3.00
2018-12-19T12:25:05.358Z,3.00
2018-12-19T12:26:05.442Z,3.00
2018-12-19T12:27:05.686Z,3.00
2018-12-19T12:28:04.806Z,3.00
2018-12-19T12:29:04.837Z,3.00
2018-12-19T12:30:07.397Z,3.00
2018-12-19T12:31:05.334Z,3.00
2018-12-19T12:32:08.003Z,3.00
2018-12-19T12:33:07.842Z,3.00
2018-12-19T12:34:04.795Z,2.90
2018-12-19T12:35:04.795Z,3.00
2018-12-19T12:36:04.835Z,3.00
2018-12-19T12:37:10.532Z,3.00
2018-12-19T12:38:04.684Z,3.00
2018-12-19T12:39:05.502Z,3.00
2018-12-19T12:40:15.227Z,3.00
2018-12-19T12:41:05.208Z,2.90
2018-12-19T12:42:05.271Z,3.00
2018-12-19T12:43:07.895Z,3.00
2018-12-19T12:44:05.064Z,3.00
2018-12-19T12:45:07.769Z,3.00
2018-12-19T12:46:07.298Z,3.00
2018-12-19T12:47:05.311Z,3.00
2018-12-19T12:48:05.448Z,3.00
2018-12-19T12:49:05.518Z,3.00
2018-12-19T12:50:04.687Z,3.00
2018-12-19T12:51:07.537Z,3.00
2018-12-19T12:52:05.648Z,3.00
2018-12-19T12:53:04.761Z,3.00
2018-12-19T12:54:04.862Z,3.00
2018-12-19T12:55:05.103Z,3.00
2018-12-19T12:56:07.849Z,3.00
2018-12-19T12:57:04.808Z,3.00
2018-12-19T12:58:04.909Z,3.00
2018-12-19T12:59:05.139Z,3.00
2018-12-19T13:00:05.315Z,3.00
2018-12-19T13:01:04.872Z,3.00
2018-12-19T13:02:05.064Z,3.00
2018-12-19T13:03:07.739Z,3.00
2018-12-19T13:04:04.724Z,3.00
2018-12-19T13:05:07.369Z,3.10
2018-12-19T13:06:05.460Z,3.00
2018-12-19T13:07:08.100Z,3.00
2018-12-19T13:08:12.652Z,3.00
2018-12-19T13:09:08.121Z,3.00
2018-12-19T13:10:07.753Z,3.00
2018-12-19T13:11:07.289Z,3.00
2018-12-19T13:12:07.874Z,3.00
2018-12-19T13:13:04.904Z,3.00
2018-12-19T13:14:07.500Z,3.00
2018-12-19T13:15:05.532Z,3.00
2018-12-19T13:16:05.765Z,3.00
2018-12-19T13:17:05.176Z,3.00
2018-12-19T13:18:05.392Z,3.00